createdAt,value
2022-10-04T00:02:31.565Z,101783.91
2022-10-04T00:05:04.092Z,101782.22
2022-10-04T00:07:35.872Z,101792.09
2022-10-04T00:10:08.385Z,101774.44
2022-10-04T00:12:41.468Z,101769.13
2022-10-04T00:15:20.903Z,101770.94
2022-10-04T00:18:03.484Z,101763.09
2022-10-04T00:21:00.780Z,101758.84
2022-10-04T00:23:42.731Z,101752.75
2022-10-04T00:26:16.680Z,101748.50
2022-10-04T00:28:46.426Z,101749.47
2022-10-04T00:31:25.753Z,101756.59
2022-10-04T00:33:56.094Z,101749.66
2022-10-04T00:36:45.571Z,101741.81
2022-10-04T00:39:41.648Z,101740.84
2022-10-04T00:42:39.944Z,101742.75
2022-10-04T00:45:14.781Z,101748.19
2022-10-04T00:48:01.482Z,101754.41
2022-10-04T00:50:35.547Z,101742.09
2022-10-04T00:53:12.909Z,101737.66
2022-10-04T00:55:47.824Z,101730.47
2022-10-04T00:58:21.233Z,101732.25
2022-10-04T01:00:50.559Z,101721.66
2022-10-04T01:03:24.984Z,101723.34
2022-10-04T01:05:59.459Z,101719.84
2022-10-04T01:08:32.104Z,101725.88
2022-10-04T01:11:04.575Z,101721.44
2022-10-04T01:13:39.283Z,101725.78
2022-10-04T01:16:14.664Z,101727.47
2022-10-04T01:18:42.512Z,101717.72
2022-10-04T01:21:27.532Z,101717.63
2022-10-04T01:24:17.631Z,101709.56
2022-10-04T01:26:46.408Z,101716.56
2022-10-04T01:29:17.366Z,101712.94
2022-10-04T01:31:46.986Z,101712.88
2022-10-04T01:34:17.296Z,101710.09
2022-10-04T01:36:47.091Z,101702.88
2022-10-04T01:39:17.678Z,101691.31
2022-10-04T01:41:50.189Z,101692.94
2022-10-04T01:44:25.795Z,101687.50
2022-10-04T01:46:57.546Z,101674.97
2022-10-04T01:49:30.100Z,101671.38
2022-10-04T01:52:04.292Z,101667.66
2022-10-04T01:54:36.194Z,101666.59
2022-10-04T01:57:12.020Z,101668.09
2022-10-04T01:59:46.036Z,101668.81
2022-10-04T02:02:23.018Z,101674.91
2022-10-04T02:04:55.242Z,101679.25
2022-10-04T02:07:24.012Z,101673.09
2022-10-04T02:09:59.424Z,101671.28
2022-10-04T02:12:28.969Z,101670.44
2022-10-04T02:14:59.124Z,101667.78
2022-10-04T02:17:30.363Z,101657.16
2022-10-04T02:19:59.518Z,101663.31
2022-10-04T02:22:27.669Z,101654.50
2022-10-04T02:24:58.773Z,101652.69
2022-10-04T02:27:31.118Z,101650.06
2022-10-04T02:30:03.173Z,101644.75
2022-10-04T02:32:49.937Z,101649.19
2022-10-04T02:35:19.774Z,101649.31
2022-10-04T02:37:49.646Z,101642.28
2022-10-04T02:40:22.504Z,101644.94
2022-10-04T02:42:59.639Z,101644.94
2022-10-04T02:45:37.372Z,101644.00
2022-10-04T02:48:14.070Z,101644.94
2022-10-04T02:50:49.413Z,101647.59
2022-10-04T02:53:23.342Z,101634.31
2022-10-04T02:55:52.572Z,101635.19
2022-10-04T02:58:23.802Z,101631.66
2022-10-04T03:00:56.724Z,101634.31
2022-10-04T03:03:27.101Z,101631.66
2022-10-04T03:06:01.777Z,101628.91
2022-10-04T03:08:32.892Z,101639.63
2022-10-04T03:11:05.514Z,101650.25
2022-10-04T03:13:34.400Z,101638.03
2022-10-04T03:16:02.411Z,101633.69
2022-10-04T03:18:30.918Z,101623.06
2022-10-04T03:20:59.295Z,101628.28
2022-10-04T03:23:26.951Z,101616.81
2022-10-04T03:26:00.902Z,101620.31
2022-10-04T03:28:30.985Z,101619.47
2022-10-04T03:30:59.362Z,101613.31
2022-10-04T03:33:28.741Z,101616.81
2022-10-04T03:36:00.521Z,101615.09
2022-10-04T03:38:29.787Z,101618.72
2022-10-04T03:41:00.232Z,101611.72
2022-10-04T03:43:32.618Z,101611.81
2022-10-04T03:46:02.040Z,101614.56
2022-10-04T03:48:36.621Z,101608.41
2022-10-04T03:51:07.450Z,101595.16
2022-10-04T03:53:43.025Z,101598.75
2022-10-04T03:56:13.734Z,101588.22
2022-10-04T03:58:43.203Z,101591.84
2022-10-04T04:01:32.979Z,101585.78
2022-10-04T04:04:06.882Z,101594.72
2022-10-04T04:06:41.420Z,101591.22
2022-10-04T04:09:17.765Z,101588.56
2022-10-04T04:11:49.952Z,101592.81
2022-10-04T04:14:25.706Z,101585.69
2022-10-04T04:16:55.836Z,101588.22
2022-10-04T04:19:25.795Z,101587.28
2022-10-04T04:21:56.523Z,101586.34
2022-10-04T04:24:29.194Z,101583.56
2022-10-04T04:26:59.455Z,101579.94
2022-10-04T04:29:34.696Z,101579.00
2022-10-04T04:32:05.933Z,101572.00
2022-10-04T04:34:36.182Z,101572.00
2022-10-04T04:37:05.714Z,101561.38
2022-10-04T04:39:38.142Z,101558.72
2022-10-04T04:42:12.949Z,101557.97
2022-10-04T04:44:50.631Z,101552.78
2022-10-04T04:47:32.482Z,101562.56
2022-10-04T04:50:07.413Z,101552.88
2022-10-04T04:52:36.943Z,101552.97
2022-10-04T04:55:06.225Z,101552.25
2022-10-04T04:57:34.894Z,101560.22
2022-10-04T05:00:04.355Z,101559.38
2022-10-04T05:02:34.910Z,101567.53
2022-10-04T05:05:20.783Z,101564.03
2022-10-04T05:07:49.099Z,101578.38
2022-10-04T05:10:39.599Z,101569.66
2022-10-04T05:13:09.414Z,101570.72
2022-10-04T05:15:40.307Z,101575.28
2022-10-04T05:18:17.701Z,101570.91
2022-10-04T05:20:49.715Z,101574.63
2022-10-04T05:23:17.631Z,101565.09
2022-10-04T05:25:45.611Z,101566.97
2022-10-04T05:28:15.060Z,101566.38
2022-10-04T05:30:53.134Z,101562.09
2022-10-04T05:33:25.495Z,101560.59
2022-10-04T05:36:09.547Z,101564.31
2022-10-04T05:38:44.475Z,101567.09
2022-10-04T05:41:22.210Z,101569.09
2022-10-04T05:43:51.674Z,101562.28
2022-10-04T05:46:25.243Z,101553.59
2022-10-04T05:48:55.616Z,101558.25
2022-10-04T05:51:25.332Z,101557.59
2022-10-04T05:53:54.172Z,101563.03
2022-10-04T05:56:50.639Z,101561.50
2022-10-04T05:59:36.635Z,101567.78
2022-10-04T06:02:19.443Z,101569.66
2022-10-04T06:05:09.884Z,101573.38
2022-10-04T06:07:42.912Z,101565.53
2022-10-04T06:10:29.856Z,101568.19
2022-10-04T06:13:04.376Z,101563.72
2022-10-04T06:15:48.440Z,101565.41
2022-10-04T06:18:43.405Z,101569.03
2022-10-04T06:21:22.303Z,101579.75
2022-10-04T06:23:57.975Z,101579.75
2022-10-04T06:26:31.715Z,101582.41
2022-10-04T06:29:02.744Z,101571.84
2022-10-04T06:32:00.748Z,101570.00
2022-10-04T06:34:49.450Z,101568.06
2022-10-04T06:37:29.722Z,101570.63
2022-10-04T06:40:35.011Z,101562.25
2022-10-04T06:43:21.651Z,101558.44
2022-10-04T06:46:07.904Z,101553.69
2022-10-04T06:48:52.659Z,101549.78
2022-10-04T06:51:40.788Z,101559.13
2022-10-04T06:54:24.550Z,101564.00
2022-10-04T06:57:08.537Z,101559.25
2022-10-04T06:59:51.648Z,101560.41
2022-10-04T07:02:25.640Z,101571.44
2022-10-04T07:05:08.470Z,101555.94
2022-10-04T07:07:42.033Z,101557.97
2022-10-04T07:10:26.855Z,101564.44
2022-10-04T07:13:08.090Z,101576.13
2022-10-04T07:15:46.201Z,101565.47
2022-10-04T07:18:17.977Z,101562.81
2022-10-04T07:20:48.888Z,101565.53
2022-10-04T07:23:28.671Z,101565.75
2022-10-04T07:26:03.014Z,101569.66
2022-10-04T07:28:52.807Z,101567.28
2022-10-04T07:31:28.051Z,101568.31
2022-10-04T07:33:59.285Z,101574.88
2022-10-04T07:36:30.775Z,101569.00
2022-10-04T07:39:05.980Z,101573.75
2022-10-04T07:41:38.942Z,101577.81
2022-10-04T07:44:16.995Z,101572.66
2022-10-04T07:46:50.829Z,101573.88
2022-10-04T07:49:21.381Z,101572.34
2022-10-04T07:52:06.319Z,101579.75
2022-10-04T07:54:41.763Z,101584.38
2022-10-04T07:57:18.660Z,101582.72
2022-10-04T07:59:54.241Z,101580.19
2022-10-04T08:02:35.475Z,101586.28
2022-10-04T08:05:18.418Z,101583.72
2022-10-04T08:08:00.931Z,101573.09
2022-10-04T08:10:37.634Z,101575.06
2022-10-04T08:13:17.286Z,101576.00
2022-10-04T08:15:46.249Z,101573.72
2022-10-04T08:18:29.125Z,101577.34
2022-10-04T08:20:59.200Z,101576.59
2022-10-04T08:23:54.313Z,101572.63
2022-10-04T08:26:41.595Z,101582.53
2022-10-04T08:29:44.123Z,101580.94
2022-10-04T08:32:24.163Z,101578.25
2022-10-04T08:35:20.519Z,101576.63
2022-10-04T08:38:00.154Z,101567.59
2022-10-04T08:40:53.939Z,101562.41
2022-10-04T08:43:43.198Z,101563.50
2022-10-04T08:46:33.995Z,101564.41
2022-10-04T08:49:25.035Z,101557.34
2022-10-04T08:52:12.401Z,101553.81
2022-10-04T08:55:03.748Z,101554.06
2022-10-04T08:58:01.460Z,101560.75
2022-10-04T09:00:47.213Z,101570.22
2022-10-04T09:03:49.545Z,101563.22
2022-10-04T09:06:46.930Z,101551.31
2022-10-04T09:10:04.545Z,101545.13
2022-10-04T09:12:50.900Z,101542.03
2022-10-04T09:15:42.213Z,101529.50
2022-10-04T09:18:22.566Z,101532.28
2022-10-04T09:20:59.008Z,101527.09
2022-10-04T09:23:58.108Z,101522.00
2022-10-04T09:26:40.715Z,101523.56
2022-10-04T09:29:22.985Z,101524.09
2022-10-04T09:32:30.379Z,101521.72
2022-10-04T09:35:24.451Z,101520.31
2022-10-04T09:38:16.066Z,101511.78
2022-10-04T09:41:09.523Z,101511.78
2022-10-04T09:44:03.743Z,101507.41
2022-10-04T09:47:12.183Z,101511.94
2022-10-04T09:50:10.994Z,101512.47
2022-10-04T09:52:52.071Z,101509.78
2022-10-04T09:55:43.911Z,101502.84
2022-10-04T09:58:34.075Z,101502.13
2022-10-04T10:01:12.351Z,101506.75
2022-10-04T10:04:21.014Z,101501.88
2022-10-04T10:07:01.598Z,101496.38
2022-10-04T10:09:57.031Z,101498.47
2022-10-04T10:13:13.695Z,101495.31
2022-10-04T10:15:59.313Z,101491.09
2022-10-04T10:18:41.219Z,101503.53
2022-10-04T10:21:27.337Z,101495.19
2022-10-04T10:24:39.471Z,101493.88
2022-10-04T10:27:30.738Z,101488.50
2022-10-04T10:30:17.444Z,101490.34
2022-10-04T10:33:20.321Z,101491.91
2022-10-04T10:36:34.113Z,101489.34
2022-10-04T10:39:27.927Z,101477.78
2022-10-04T10:42:14.786Z,101480.06
2022-10-04T10:45:05.890Z,101484.97
2022-10-04T10:47:44.209Z,101485.66
2022-10-04T10:50:58.457Z,101479.44
2022-10-04T10:53:54.940Z,101484.38
2022-10-04T10:56:35.084Z,101482.06
2022-10-04T10:59:29.393Z,101475.88
2022-10-04T11:02:42.214Z,101481.06
2022-10-04T11:05:36.640Z,101484.59
2022-10-04T11:08:17.868Z,101486.72
2022-10-04T11:11:09.492Z,101481.31
2022-10-04T11:14:22.576Z,101482.97
2022-10-04T11:17:33.488Z,101468.56
2022-10-04T11:20:25.028Z,101462.22
2022-10-04T11:23:29.626Z,101459.78
2022-10-04T11:26:12.461Z,101450.16
2022-10-04T11:28:47.564Z,101458.06
2022-10-04T11:31:41.594Z,101448.19
2022-10-04T11:34:46.139Z,101443.97
2022-10-04T11:37:22.930Z,101442.81
2022-10-04T11:40:05.544Z,101431.22
2022-10-04T11:42:55.697Z,101431.09
2022-10-04T11:45:39.416Z,101431.94
2022-10-04T11:48:23.359Z,101429.94
2022-10-04T11:51:22.800Z,101424.56
2022-10-04T11:54:15.385Z,101426.94
2022-10-04T11:57:04.142Z,101434.84
2022-10-04T11:59:46.841Z,101432.81
2022-10-04T12:02:41.936Z,101424.78
2022-10-04T12:05:39.433Z,101417.28
2022-10-04T12:08:28.148Z,101419.94
2022-10-04T12:11:48.248Z,101412.06
2022-10-04T12:14:27.031Z,101420.63
2022-10-04T12:17:30.731Z,101418.66
2022-10-04T12:20:28.757Z,101416.66
2022-10-04T12:23:30.946Z,101412.50
2022-10-04T12:26:33.093Z,101411.31
2022-10-04T12:29:29.672Z,101413.72
2022-10-04T12:32:01.025Z,101398.09
2022-10-04T12:34:33.682Z,101388.91
2022-10-04T12:37:13.942Z,101382.53
2022-10-04T12:40:02.136Z,101382.91
2022-10-04T12:42:37.196Z,101387.66
2022-10-04T12:45:28.876Z,101376.56
2022-10-04T12:48:11.005Z,101380.13
2022-10-04T12:50:46.858Z,101372.28
2022-10-04T12:53:24.244Z,101369.59
2022-10-04T12:56:18.198Z,101360.53
2022-10-04T12:59:10.034Z,101352.13
2022-10-04T13:01:46.502Z,101346.09
2022-10-04T13:04:29.135Z,101335.44
2022-10-04T13:07:26.491Z,101338.13
2022-10-04T13:10:24.106Z,101340.66
2022-10-04T13:13:26.441Z,101337.47
2022-10-04T13:18:59.070Z,101342.88
2022-10-04T13:22:02.638Z,101334.00
2022-10-04T13:27:47.420Z,101323.59
2022-10-04T13:30:23.360Z,101330.16
2022-10-04T13:33:03.817Z,101330.19
2022-10-04T13:35:37.465Z,101329.38
2022-10-04T13:38:27.912Z,101314.44
2022-10-04T13:41:14.593Z,101321.16
2022-10-04T13:44:08.572Z,101310.41
2022-10-04T13:46:45.503Z,101309.22
2022-10-04T13:49:27.973Z,101303.34
2022-10-04T13:52:26.938Z,101302.66
2022-10-04T13:55:29.310Z,101305.69
2022-10-04T13:58:02.571Z,101295.47
2022-10-04T14:00:52.188Z,101287.19
2022-10-04T14:03:35.995Z,101286.06
2022-10-04T14:06:33.551Z,101289.41
2022-10-04T14:09:28.053Z,101294.13
2022-10-04T14:12:44.785Z,101289.22
2022-10-04T14:15:50.817Z,101289.22
2022-10-04T14:18:55.663Z,101290.25
2022-10-04T14:22:01.355Z,101295.81
2022-10-04T14:25:05.288Z,101296.13
2022-10-04T14:28:01.880Z,101299.16
2022-10-04T14:30:39.245Z,101295.63
2022-10-04T14:33:40.081Z,101289.41
2022-10-04T14:36:30.150Z,101285.88
2022-10-04T14:39:18.852Z,101289.22
2022-10-04T14:42:09.432Z,101277.94
2022-10-04T14:45:12.952Z,101284.84
2022-10-04T14:48:27.946Z,101278.63
2022-10-04T14:51:14.227Z,101260.63
2022-10-04T14:53:55.878Z,101252.03
2022-10-04T14:56:52.195Z,101255.56
2022-10-04T14:59:34.272Z,101256.78
2022-10-04T15:02:34.650Z,101254.91
2022-10-04T15:05:36.092Z,101260.13
2022-10-04T15:08:32.300Z,101250.56
2022-10-04T15:11:04.691Z,101246.84
2022-10-04T15:13:37.999Z,101250.03
2022-10-04T15:16:15.100Z,101249.38
2022-10-04T15:18:53.293Z,101243.31
2022-10-04T15:21:41.631Z,101240.78
2022-10-04T15:24:25.637Z,101242.66
2022-10-04T15:27:18.057Z,101245.69
2022-10-04T15:29:58.203Z,101236.75
2022-10-04T15:32:35.737Z,101248.88
2022-10-04T15:35:20.849Z,101251.72
2022-10-04T15:37:57.953Z,101252.91
2022-10-04T15:40:50.275Z,101253.09
2022-10-04T15:43:23.543Z,101260.44
2022-10-04T15:46:12.788Z,101252.75
2022-10-04T15:49:17.960Z,101258.28
2022-10-04T15:52:03.202Z,101261.78
2022-10-04T15:55:15.640Z,101255.94
2022-10-04T15:58:09.368Z,101261.63
2022-10-04T16:00:52.741Z,101255.91
2022-10-04T16:03:32.343Z,101251.03
2022-10-04T16:06:05.506Z,101261.44
2022-10-04T16:08:47.027Z,101267.31
2022-10-04T16:11:32.916Z,101264.44
2022-10-04T16:14:31.000Z,101263.94
2022-10-04T16:17:18.898Z,101270.97
2022-10-04T16:20:07.935Z,101278.69
2022-10-04T16:22:38.245Z,101273.09
2022-10-04T16:25:36.884Z,101270.22
2022-10-04T16:28:19.186Z,101265.66
2022-10-04T16:31:12.856Z,101263.63
2022-10-04T16:33:52.315Z,101262.72
2022-10-04T16:36:24.893Z,101270.09
2022-10-04T16:39:13.382Z,101274.56
2022-10-04T16:41:44.339Z,101273.53
2022-10-04T16:44:30.063Z,101279.69
2022-10-04T16:47:03.248Z,101281.66
2022-10-04T16:49:41.204Z,101265.47
2022-10-04T16:52:44.071Z,101267.28
2022-10-04T16:55:28.873Z,101259.66
2022-10-04T16:58:38.508Z,101266.38
2022-10-04T17:01:38.570Z,101259.56
2022-10-04T17:04:32.308Z,101265.03
2022-10-04T17:07:06.483Z,101266.25
2022-10-04T17:09:41.622Z,101260.97
2022-10-04T17:12:18.975Z,101250.47
2022-10-04T17:15:27.495Z,101249.72
2022-10-04T17:18:01.284Z,101243.34
2022-10-04T17:20:46.724Z,101253.94
2022-10-04T17:23:30.644Z,101249.25
2022-10-04T17:26:08.852Z,101252.78
2022-10-04T17:28:50.351Z,101251.00
2022-10-04T17:31:26.074Z,101258.50
2022-10-04T17:34:03.683Z,101252.22
2022-10-04T17:36:43.744Z,101252.22
2022-10-04T17:39:24.737Z,101263.66
2022-10-04T17:42:13.903Z,101260.88
2022-10-04T17:44:56.907Z,101265.25
2022-10-04T17:47:54.671Z,101266.81
2022-10-04T17:50:45.870Z,101260.38
2022-10-04T17:53:39.604Z,101252.19
2022-10-04T17:56:11.781Z,101250.25
2022-10-04T17:58:45.476Z,101256.16
2022-10-04T18:01:17.458Z,101257.72
2022-10-04T18:03:52.100Z,101261.94
2022-10-04T18:06:30.672Z,101267.81
2022-10-04T18:09:03.876Z,101274.56
2022-10-04T18:11:43.541Z,101276.06
2022-10-04T18:14:21.806Z,101271.28
2022-10-04T18:16:53.132Z,101284.34
2022-10-04T18:19:43.956Z,101285.91
2022-10-04T18:22:16.636Z,101289.25
2022-10-04T18:24:47.971Z,101296.00
2022-10-04T18:27:21.000Z,101299.19
2022-10-04T18:30:00.565Z,101300.44
2022-10-04T18:32:34.988Z,101291.16
2022-10-04T18:35:21.679Z,101282.69
2022-10-04T18:37:50.672Z,101284.09
2022-10-04T18:40:21.701Z,101267.66
2022-10-04T18:42:53.169Z,101273.41
2022-10-04T18:45:24.092Z,101273.78
2022-10-04T18:47:53.066Z,101264.50
2022-10-04T18:50:32.940Z,101275.56
2022-10-04T18:53:32.241Z,101267.13
2022-10-04T18:56:04.038Z,101275.66
2022-10-04T18:59:00.828Z,101286.75
2022-10-04T19:02:00.129Z,101295.25
2022-10-04T19:04:50.147Z,101306.31
2022-10-04T19:07:23.043Z,101310.50
2022-10-04T19:10:02.073Z,101317.88
2022-10-04T19:12:36.745Z,101298.75
2022-10-04T19:15:14.892Z,101298.03
2022-10-04T19:17:52.832Z,101294.78
2022-10-04T19:20:27.892Z,101301.31
2022-10-04T19:23:06.821Z,101292.63
2022-10-04T19:25:39.202Z,101294.59
2022-10-04T19:28:14.130Z,101288.53
2022-10-04T19:30:54.847Z,101278.97
2022-10-04T19:33:35.432Z,101267.00
2022-10-04T19:36:20.891Z,101277.22
2022-10-04T19:39:02.017Z,101289.97
2022-10-04T19:41:41.953Z,101285.84
2022-10-04T19:44:26.414Z,101279.09
2022-10-04T19:46:59.123Z,101275.84
2022-10-04T19:49:38.224Z,101277.78
2022-10-04T19:52:21.823Z,101283.38
2022-10-04T19:54:54.301Z,101287.25
2022-10-04T19:57:32.248Z,101279.63
2022-10-04T20:00:01.676Z,101290.56
2022-10-04T20:02:45.947Z,101293.59
2022-10-04T20:05:20.127Z,101297.47
2022-10-04T20:07:52.767Z,101297.75
2022-10-04T20:10:31.134Z,101296.16
2022-10-04T20:13:20.995Z,101301.75
2022-10-04T20:15:52.220Z,101302.81
2022-10-04T20:19:00.928Z,101293.16
2022-10-04T20:21:32.815Z,101296.78
2022-10-04T20:24:01.520Z,101293.41
2022-10-04T20:26:54.836Z,101285.81
2022-10-04T20:30:04.538Z,101274.53
2022-10-04T20:32:56.299Z,101274.94
2022-10-04T20:36:08.254Z,101270.69
2022-10-04T20:38:48.163Z,101270.97
2022-10-04T20:42:00.692Z,101260.53
2022-10-04T20:44:55.041Z,101255.34
2022-10-04T20:47:32.488Z,101263.56
2022-10-04T20:50:03.097Z,101269.28
2022-10-04T20:52:32.838Z,101264.19
2022-10-04T20:55:01.873Z,101260.81
2022-10-04T20:57:31.039Z,101248.59
2022-10-04T20:59:59.394Z,101254.06
2022-10-04T21:02:28.771Z,101249.72
2022-10-04T21:05:14.407Z,101247.41
2022-10-04T21:07:42.027Z,101253.00
2022-10-04T21:10:18.211Z,101248.50
2022-10-04T21:12:46.141Z,101248.63
2022-10-04T21:15:22.816Z,101251.41
2022-10-04T21:18:02.101Z,101247.19
2022-10-04T21:20:47.234Z,101264.13
2022-10-04T21:23:23.118Z,101254.56
2022-10-04T21:25:51.375Z,101258.19
2022-10-04T21:28:40.303Z,101265.31
2022-10-04T21:31:07.942Z,101267.13
2022-10-04T21:33:36.974Z,101268.97
2022-10-04T21:36:06.899Z,101266.53
2022-10-04T21:38:34.442Z,101259.38
2022-10-04T21:41:02.253Z,101253.34
2022-10-04T21:43:30.048Z,101254.34
2022-10-04T21:45:57.777Z,101242.84
2022-10-04T21:48:25.836Z,101242.94
2022-10-04T21:50:54.557Z,101236.91
2022-10-04T21:53:24.167Z,101236.91
2022-10-04T21:55:51.778Z,101231.59
2022-10-04T21:58:19.336Z,101237.00
2022-10-04T22:00:46.988Z,101248.50
2022-10-04T22:03:14.583Z,101248.50
2022-10-04T22:05:42.307Z,101258.19
2022-10-04T22:08:09.887Z,101267.94
2022-10-04T22:10:39.852Z,101260.84
2022-10-04T22:13:07.679Z,101259.03
2022-10-04T22:15:35.408Z,101263.28
2022-10-04T22:18:02.950Z,101262.41
2022-10-04T22:20:31.219Z,101260.63
2022-10-04T22:22:59.714Z,101254.44
2022-10-04T22:25:28.596Z,101247.31
2022-10-04T22:27:57.548Z,101252.88
2022-10-04T22:30:27.287Z,101252.00
2022-10-04T22:32:56.172Z,101244.91
2022-10-04T22:35:24.032Z,101248.63
2022-10-04T22:37:52.087Z,101254.88
2022-10-04T22:40:21.634Z,101241.72
2022-10-04T22:42:52.208Z,101245.22
2022-10-04T22:45:24.421Z,101248.63
2022-10-04T22:47:52.993Z,101237.16
2022-10-04T22:50:29.516Z,101240.66
2022-10-04T22:52:57.610Z,101245.84
2022-10-04T22:55:25.646Z,101244.16
2022-10-04T22:57:53.458Z,101244.16
2022-10-04T23:00:22.369Z,101253.81
2022-10-04T23:02:50.137Z,101252.00
2022-10-04T23:05:20.092Z,101244.91
2022-10-04T23:07:49.026Z,101244.66
2022-10-04T23:10:18.979Z,101237.41
2022-10-04T23:12:48.076Z,101240.91
2022-10-04T23:15:18.005Z,101235.44
2022-10-04T23:17:54.151Z,101245.13
2022-10-04T23:20:22.798Z,101236.28
2022-10-04T23:22:52.346Z,101241.53
2022-10-04T23:25:22.136Z,101237.13
2022-10-04T23:27:50.015Z,101238.00
2022-10-04T23:30:19.907Z,101245.13
2022-10-04T23:32:51.726Z,101243.44
2022-10-04T23:35:21.194Z,101240.78
2022-10-04T23:37:49.523Z,101234.63
2022-10-04T23:40:19.906Z,101240.78
2022-10-04T23:42:50.011Z,101240.69
2022-10-04T23:45:20.686Z,101240.53
2022-10-04T23:47:52.878Z,101243.06
2022-10-04T23:50:25.250Z,101243.78
2022-10-04T23:52:53.460Z,101235.94
2022-10-04T23:55:23.595Z,101234.38
2022-10-04T23:57:51.432Z,101234.25
